• Join FlightAware (Why Join?)
  • Login
  • US Flag 
07:41PM EST


 

Airport Tracker/Info


-or-


 

Live Flight TrackerFlight Track Log ✈ N325WP ✈ 23-Sep-2013 ✈ KPBI - KHOU

Flight Track Log - Related Links

Times and Time Zones

All times are in EDT time to prevent confusion due to time zone crossing. See the N325WP flight status page for this flight to view local times or setup timezone preferences in your user account.

Time Position Orientation Groundspeed Altitude Reporting Facility
EDT Latitude Longitude Course Direction KTS MPH feet Rate Location/Type
02:08PM 26.7347 -80.1528 270° West 238 274 2,100  Level Miami Center
02:09PM 26.7878 -80.2053 319° Northwest 260 299 4,500 2,340 Climbing Miami Center
02:10PM 26.8689 -80.2100 357° North 265 305 6,800 2,340 Climbing Miami Center
02:11PM 26.9358 -80.2097 360° North 283 326 9,200 2,340 Climbing Miami Center
02:12PM 26.9983 -80.2183 353° North 264 304 11,500 2,100 Climbing Miami Center
02:13PM 27.0472 -80.2689 317° Northwest 257 296 13,400 2,040 Climbing Miami Center
02:14PM 26.8240 -80.6499 270° West  Level Estimated
02:14PM 27.0639 -80.3578 282° West 242 278 15,600  Level Miami Center
02:15PM 27.0767 -80.4375 280° West 266 306 17,500 1,680 Climbing Miami Center
02:16PM 27.0828 -80.5264 274° West 276 318 19,000 1,260 Climbing Miami Center
02:17PM 27.0700 -80.6169 261° West 282 325 20,100 1,320 Climbing Miami Center
02:18PM 27.0550 -80.7075 259° West 294 338 21,700 1,620 Climbing Miami Center
02:19PM 27.0361 -80.7953 256° West 294 338 23,400 1,500 Climbing Miami Center
02:20PM 27.0214 -80.8694 257° West 294 338 24,800 1,380 Climbing Miami Center
02:21PM 27.0128 -80.9553 264° West 289 333 26,200 1,080 Climbing Miami Center
02:22PM 27.0250 -81.0397 279° West 282 325 27,000 840 Climbing Miami Center
02:23PM 27.0514 -81.1339 287° West 277 319 27,900 900 Climbing Miami Center
02:24PM 27.0739 -81.2258 285° West 290 334 28,900 900 Climbing Miami Center
02:25PM 27.0961 -81.3128 286° West 295 339 29,800 900 Climbing Miami Center
02:26PM 27.1186 -81.3931 287° West 295 339 30,800 960 Climbing Miami Center
02:27PM 27.1389 -81.4825 284° West 295 339 31,800 1,020 Climbing Miami Center
02:28PM 27.1631 -81.5769 286° West 300 345 32,900 960 Climbing Miami Center
02:29PM 27.1853 -81.6642 286° West 300 345 33,800 900 Climbing Miami Center
02:30PM 27.2053 -81.7511 285° West 300 345 34,700 900 Climbing Miami Center
02:31PM 27.2256 -81.8269 287° West 287 330 35,700 900 Climbing Miami Center
02:32PM 27.2456 -81.9117 285° West 287 330 36,600 960 Climbing Miami Center
02:33PM 27.2675 -82.0039 285° West 281 323 37,700 900 Climbing Miami Center
02:34PM 27.2894 -82.0889 286° West 281 323 38,500 720 Climbing Miami Center
02:35PM 27.3094 -82.1692 286° West 281 323 39,200 600 Climbing Miami Center
02:36PM 27.3275 -82.2472 285° West 281 323 39,800 660 Climbing Miami Center
02:37PM 27.3556 -82.3278 291° West 281 323 40,600 720 Climbing Miami Center
02:38PM 27.4069 -82.4075 306° West 289 333 41,300 600 Climbing Miami Center
02:39PM 27.4519 -82.4797 305° West 289 333 41,900 540 Climbing Miami Center
02:40PM 27.4825 -82.5586 294° West 288 331 42,400 480 Climbing Miami Center
02:41PM 27.5022 -82.6367 286° West 288 331 42,900 300 Climbing Miami Center
02:42PM 27.5233 -82.7336 284° West 288 331 43,000  Climbing Miami Center
02:43PM 27.5383 -82.8281 280° West 303 349 43,000  Level Miami Center
02:44PM 27.5569 -82.9297 282° West 317 365 43,000  Level Miami Center
02:45PM 27.5736 -83.0311 281° West 323 372 43,000  Level Miami Center
02:46PM 27.5897 -83.1350 280° West 335 386 43,000  Level Miami Center
02:47PM 27.6064 -83.2367 281° West 335 386 43,100 360 Climbing Miami Center
02:48PM 27.6244 -83.3408 281° West 335 386 43,800 720 Climbing Miami Center
02:49PM 27.6389 -83.4375 280° West 329 379 44,600 600 Climbing Miami Center
02:50PM 27.6531 -83.5367 279° West 324 373 45,000 180 Climbing Miami Center
02:51PM 27.6672 -83.6358 279° West 319 367 45,000  Level Miami Center
02:52PM 27.6794 -83.7328 278° West 319 367 45,000  Level Miami Center
02:53PM 27.6931 -83.8389 278° West 324 373 45,000  Level Miami Center
02:54PM 27.7069 -83.9406 279° West 334 384 45,000  Level Miami Center
02:55PM 27.7228 -84.0400 280° West 334 384 45,000  Level Miami Center
02:56PM 27.7447 -84.1397 284° West 334 384 45,000  Level Miami Center
02:57PM 27.7583 -84.2436 278° West 334 384 45,000  Level Miami Center
02:58PM 27.7758 -84.3456 281° West 334 384 45,000  Level Miami Center
02:59PM 27.7914 -84.4475 280° West 334 384 45,000  Level Miami Center
03:01PM 27.8108 -84.6147 278° West 333 383 45,000  Level Jacksonville Center
03:02PM 27.8325 -84.7158 284° West 333 383 45,000  Level Jacksonville Center
03:03PM 27.8414 -84.8194 276° West 333 383 45,000  Level Jacksonville Center
03:04PM 27.8564 -84.9228 279° West 333 383 45,000  Level Jacksonville Center
03:05PM 27.8714 -85.0289 279° West 333 383 45,000  Level Jacksonville Center
03:06PM 27.8864 -85.1278 280° West 333 383 45,000  Level Jacksonville Center
03:07PM 27.8992 -85.2336 278° West 338 389 45,000  Level Jacksonville Center
03:08PM 27.9075 -85.3394 275° West 332 382 45,000  Level Jacksonville Center
03:09PM 27.9347 -85.4436 287° West 332 382 45,000 -120 Level Jacksonville Center
03:10PM 27.9683 -85.5336 293° West 332 382 44,800 -360 Descending Jacksonville Center
03:11PM 27.9975 -85.6425 287° West 341 392 44,300 -480 Descending Jacksonville Center
03:12PM 28.0306 -85.7539 289° West 364 419 43,900 -420 Descending Jacksonville Center
03:13PM 28.0597 -85.8464 290° West 364 419 43,500 -420 Descending Jacksonville Center
03:14PM 28.0947 -85.9581 290° West 369 425 43,100 -360 Descending Jacksonville Center
03:15PM 28.1253 -86.0672 288° West 369 425 42,800 -360 Descending Jacksonville Center
03:16PM 28.1600 -86.1858 288° West 369 425 42,400 -420 Descending Jacksonville Center
03:17PM 28.1947 -86.2906 291° West 369 425 42,000 -420 Descending Jacksonville Center
03:18PM 28.2272 -86.4047 288° West 381 438 41,600 -420 Descending Jacksonville Center
03:19PM 28.2594 -86.5189 288° West 381 438 41,200 -420 Descending Jacksonville Center
03:20PM 28.2958 -86.6381 289° West 387 445 40,800 -420 Descending Jacksonville Center
03:21PM 28.3278 -86.7500 288° West 381 438 40,400 -420 Descending Jacksonville Center
03:22PM 28.3619 -86.8647 289° West 381 438 40,000 -240 Descending Jacksonville Center
03:23PM 28.3978 -86.9886 288° West 381 438 40,000  Level Jacksonville Center
03:24PM 28.4314 -87.1033 288° West 381 438 40,000  Level Jacksonville Center
03:25PM 28.4617 -87.2039 289° West 378 435 40,000  Level Jacksonville Center
03:26PM 28.4914 -87.3089 288° West 385 443 40,000  Level Jacksonville Center
03:27PM 28.5231 -87.4189 288° West 374 430 40,000  Level Jacksonville Center
03:28PM 28.5639 -87.5622 288° West 360 414 40,000  Level Houston Center
03:29PM 28.6011 -87.6925 288° West 361 415 40,000  Level Houston Center
03:30PM 28.6319 -87.8008 288° West 360 414 40,000  Level Houston Center
03:32PM 28.6628 -87.9092 288° West 360 414 40,000  Level Houston Center
03:33PM 28.6931 -88.0175 288° West 359 413 40,000  Level Houston Center
03:34PM 28.7272 -88.1406 288° West 362 417 40,000  Level Houston Center
03:35PM 28.7572 -88.2483 288° West 359 413 40,000  Level Houston Center
03:36PM 28.7881 -88.3581 288° West 364 419 40,000  Level Houston Center
03:37PM 28.8181 -88.4653 288° West 357 411 40,000  Level Houston Center
03:38PM 28.8478 -88.5736 287° West 358 412 40,000  Level Houston Center
03:39PM 28.8778 -88.6817 288° West 358 412 40,000  Level Houston Center
03:40PM 28.9064 -88.8142 284° West 359 413 40,000  Level Houston Center
03:41PM 28.9311 -88.9244 284° West 359 413 40,000  Level Houston Center
03:42PM 28.9539 -89.0344 283° West 357 411 40,000  Level Houston Center
03:43PM 28.9772 -89.1467 283° West 361 415 40,000  Level Houston Center
03:44PM 29.0000 -89.2569 283° West 361 415 40,000  Level Houston Center
03:45PM 29.0236 -89.3675 284° West 359 413 40,000  Level Houston Center
03:46PM 29.0506 -89.4997 283° West 357 411 40,000  Level Houston Center
03:47PM 29.0739 -89.6103 284° West 358 412 40,000  Level Houston Center
03:48PM 29.0961 -89.7211 283° West 358 412 40,000  Level Houston Center
03:49PM 29.1186 -89.8317 283° West 357 411 40,000  Level Houston Center
03:50PM 29.1400 -89.9403 283° West 353 406 40,000  Level Houston Center
03:51PM 29.1628 -90.0492 283° West 352 405 40,000  Level Houston Center
03:52PM 29.1831 -90.1586 282° West 352 405 40,000  Level Houston Center
03:53PM 29.1942 -90.2925 275° West 352 405 40,000  Level Houston Center
03:54PM 29.2081 -90.4050 278° West 354 407 40,000  Level Houston Center
03:55PM 29.2189 -90.5186 276° West 358 412 40,000  Level Houston Center
03:56PM 29.2311 -90.6306 277° West 354 407 40,000  Level Houston Center
03:57PM 29.2422 -90.7439 276° West 357 411 40,000  Level Houston Center
03:58PM 29.2553 -90.8581 277° West 362 417 40,000  Level Houston Center
03:59PM 29.2700 -90.9931 277° West 358 412 40,000  Level Houston Center
04:00PM 29.2817 -91.1069 277° West 360 414 40,000  Level Houston Center
04:02PM 29.2931 -91.2197 277° West 356 410 40,000  Level Houston Center
04:03PM 29.3036 -91.3317 276° West 354 407 40,000  Level Houston Center
04:04PM 29.3153 -91.4433 277° West 354 407 40,000  Level Houston Center
04:05PM 29.3267 -91.5544 277° West 353 406 40,000  Level Houston Center
04:06PM 29.3394 -91.6883 276° West 352 405 40,000  Level Houston Center
04:07PM 29.3497 -91.7919 277° West 352 405 40,000  Level Houston Center
04:08PM 29.3603 -91.9033 276° West 353 406 40,000  Level Houston Center
04:09PM 29.3525 -92.0383 266° West 354 407 40,000  Level Houston Center
04:10PM 29.3528 -92.1497 270° West 352 405 40,000  Level Houston Center
04:11PM 29.3475 -92.2611 267° West 351 404 40,000  Level Houston Center
04:12PM 29.3461 -92.3725 269° West 351 404 40,000  Level Houston Center
04:13PM 29.3419 -92.4842 268° West 350 403 40,000  Level Houston Center
04:14PM 29.3383 -92.5953 268° West 349 402 40,000  Level Houston Center
04:15PM 29.3347 -92.7306 268° West 353 406 40,000  Level Houston Center
04:16PM 29.3303 -92.8428 267° West 353 406 40,000  Level Houston Center
04:17PM 29.3269 -92.9547 268° West 352 405 40,000 -660 Level Houston Center
04:18PM 29.3242 -93.0700 268° West 361 415 38,700 -1,560 Descending Houston Center
04:19PM 29.3189 -93.1911 267° West 376 433 36,800 -1,680 Descending Houston Center
04:20PM 29.3153 -93.3125 268° West 381 438 35,200 -1,500 Descending Houston Center
04:21PM 29.3106 -93.4283 267° West 369 425 33,700 -1,860 Descending Houston Center
04:22PM 29.3053 -93.5653 268° West 359 413 31,400 -2,280 Descending Houston Center
04:23PM 29.3011 -93.6850 268° West 372 428 29,000 -2,340 Descending Houston Center
04:24PM 29.2956 -93.8044 267° West 375 432 26,600 -2,520 Descending Houston Center
04:25PM 29.2906 -93.9325 267° West 369 425 23,900 -2,520 Descending Houston Center
04:26PM 29.2864 -94.0486 268° West 366 421 21,400 -2,520 Descending Houston Center
04:27PM 29.2839 -94.1114 267° West 360 414 20,100 -2,340 Descending Houston Center
04:27PM 29.2803 -94.1633 265° West 363 418 19,000 -2,640 Descending Houston Center
04:27PM 29.2806 -94.1839 271° West 361 415 18,500 -2,520 Descending Houston Center
04:28PM 29.2761 -94.2767 267° West 358 412 16,400 -2,460 Descending Houston Center
04:28PM 29.2731 -94.2975 260° West 358 412 16,000 -2,280 Descending Houston Center
04:29PM 29.2719 -94.3847 269° West 345 397 14,100 -2,280 Descending Houston Center
04:29PM 29.2689 -94.4036 259° West 337 388 13,700 -2,040 Descending Houston Center
04:30PM 29.2697 -94.4858 271° West 324 373 12,000 -1,800 Descending Houston Center
04:30PM 29.2747 -94.5036 288° West 310 357 11,900 -1,200 Descending Houston Center
04:32PM 29.3161 -94.5869 300° West 303 349 10,800 -1,080 Descending Houston Center
04:32PM 29.3197 -94.5983 290° West 295 339 10,700 -840 Descending Houston Center
04:33PM 29.3611 -94.6772 301° West 313 360 10,000 -780 Descending Houston Center
04:33PM 29.3600 -94.6706 101° East 304 350 10,000  Level Houston Center
04:34PM 29.4011 -94.7569 299° West 308 354 10,000  Level Houston Center
04:34PM 29.4081 -94.7719 298° West 302 348 10,000 -600 Level Houston Center
04:35PM 29.4500 -94.8578 299° West 306 352 9,400 -720 Descending Houston Center
04:36PM 29.4850 -94.9269 300° West 309 356 8,600 -900 Descending Houston Center
04:37PM 29.5264 -95.0117 299° West 307 353 7,600 -1,140 Descending Houston Center
04:37PM 29.5333 -95.0275 297° West 301 346 7,400 -1,200 Descending Houston Center
04:38PM 29.5747 -95.1103 300° West 296 341 6,400 -1,020 Descending Houston Center
04:38PM 29.5772 -95.1158 297° West 296 341 6,400 -420 Level Houston Center
04:39PM 29.5819 -95.1931 274° West 255 293 6,000 -240 Descending Houston Center
04:40PM 29.5442 -95.2578 236° Southwest 250 288 6,000  Level Houston Center
04:40PM 29.5367 -95.2650 220° Southwest 235 270 6,000 -720 Level Houston Center
04:41PM 29.4947 -95.3133 225° Southwest 240 276 5,300 -780 Descending Houston Center
04:41PM 29.4969 -95.3097 55° Northeast 238 274 5,300 -780 Level Houston Center
04:42PM 29.4497 -95.3647 225° Southwest 241 277 4,500 -1,140 Descending Houston Center
04:43PM 29.4858 -95.4217 306° West 238 274 3,000 -1,260 Descending Houston Center
04:44PM 29.5417 -95.3964 21° North 224 258 2,000 -960 Descending Houston Center
04:44PM 29.5517 -95.3833 49° Northeast 191 220 1,900 -420 Descending Houston Center
04:45PM 29.5819 -95.3483 45° Northeast 164 189 1,600 -600 Descending Houston Center
04:46PM 29.6139 -95.3133 44° Northeast 171 197 800 -780 Descending Houston Center
04:47PM 29.6381 -95.2864 44° Northeast 140 161 100 -720 Descending Houston Center